Time;durP1;ratioP1;P1;durP2;ratioP2;P2;SDS_P1;SDS_P2;PMS_P1;PMS_P2;Temp;Humidity;BMP_temperature;BMP_pressure;BME280_temperature;BME280_humidity;BME280_pressure;Samples;Min_cycle;Max_cycle;Signal;HPM_P1;HPM_P2
2023/10/10 00:01:17;;;;;;;4.00;1.20;;;20.80;99.90;;;;;;5042474;28;20414;-65
2023/10/10 00:03:45;;;;;;;4.28;1.50;;;;;;;;;;5050870;28;20061;-65
2023/10/10 00:06:14;;;;;;;4.45;1.60;;;20.90;97.60;;;;;;5046920;28;20430;-65
2023/10/10 00:08:41;;;;;;;3.80;1.40;;;;;;;;;;5037118;28;20491;-65
2023/10/10 00:11:18;;;;;;;4.40;2.08;;;20.70;99.30;;;;;;5049076;28;20558;-65
2023/10/10 00:13:52;;;;;;;3.08;1.50;;;;;;;;;;5050311;28;20533;-65
2023/10/10 00:16:26;;;;;;;3.85;1.55;;;20.60;99.20;;;;;;5043144;28;20045;-65
2023/10/10 00:18:56;;;;;;;3.88;1.52;;;20.60;98.50;;;;;;5030745;28;20116;-65
2023/10/10 00:21:28;;;;;;;4.95;1.50;;;20.70;99.30;;;;;;5067786;28;20059;-64
2023/10/10 00:23:55;;;;;;;3.47;1.42;;;20.70;98.70;;;;;;5067646;28;20061;-64
2023/10/10 00:26:22;;;;;;;3.85;1.40;;;20.50;99.20;;;;;;5064038;28;20128;-66
2023/10/10 00:28:57;;;;;;;5.75;1.60;;;20.60;98.30;;;;;;5025996;28;20375;-65
2023/10/10 00:31:24;;;;;;;4.10;1.65;;;20.60;99.50;;;;;;5030057;28;20059;-65
2023/10/10 00:33:51;;;;;;;5.53;1.88;;;20.70;98.40;;;;;;5033027;28;20573;-65
2023/10/10 00:36:31;;;;;;;4.97;1.60;;;20.50;99.20;;;;;;5028775;28;20151;-65
2023/10/10 00:39:39;;;;;;;2.67;1.33;;;20.60;99.30;;;;;;5009538;28;20608;-65
2023/10/10 00:41:56;;;;;;;4.65;1.60;;;20.70;97.90;;;;;;5022208;28;20053;-65
2023/10/10 00:44:23;;;;;;;3.70;1.77;;;20.60;99.30;;;;;;5024449;28;20053;-65
2023/10/10 00:46:54;;;;;;;4.22;1.67;;;20.60;98.30;;;;;;5033955;28;20045;-65
2023/10/10 00:49:23;;;;;;;5.22;1.90;;;20.70;97.70;;;;;;5022365;28;20062;-65
2023/10/10 00:51:53;;;;;;;6.43;1.58;;;20.60;99.50;;;;;;5014620;28;20136;-65
2023/10/10 00:54:31;;;;;;;4.13;1.70;;;20.60;99.20;;;;;;5017634;28;20107;-65
2023/10/10 00:56:59;;;;;;;4.15;1.77;;;20.70;99.30;;;;;;5050179;28;20094;-65
2023/10/10 00:59:32;;;;;;;4.35;1.63;;;;;;;;;;5040713;28;20398;-65
2023/10/10 01:02:00;;;;;;;4.35;1.90;;;20.80;99.30;;;;;;5035817;28;20045;-65
2023/10/10 01:04:35;;;;;;;4.00;1.70;;;20.70;98.20;;;;;;5031771;28;20515;-65
2023/10/10 01:07:07;;;;;;;4.18;1.55;;;20.70;99.20;;;;;;5041556;28;20444;-65
2023/10/10 01:09:35;;;;;;;4.60;1.77;;;21.20;99.60;;;;;;5035796;28;20045;-65
2023/10/10 01:12:04;;;;;;;4.22;1.60;;;20.80;98.30;;;;;;5030967;28;20049;-65
2023/10/10 01:14:31;;;;;;;3.78;1.58;;;20.70;99.30;;;;;;5014723;28;20124;-65
2023/10/10 01:16:59;;;;;;;6.03;2.03;;;20.70;97.70;;;;;;5030484;28;20049;-66
2023/10/10 01:19:28;;;;;;;3.42;1.83;;;20.60;99.40;;;;;;5047457;28;20502;-65
2023/10/10 01:21:57;;;;;;;5.55;1.80;;;20.60;99.10;;;;;;5042361;28;20057;-66
2023/10/10 01:24:26;;;;;;;4.32;1.90;;;20.50;99.10;;;;;;5031679;28;20456;-66
2023/10/10 01:26:53;;;;;;;3.00;1.65;;;20.60;99.10;;;;;;5050370;28;20060;-65
2023/10/10 01:29:25;;;;;;;4.45;1.65;;;20.50;98.10;;;;;;5039401;28;20037;-66
2023/10/10 01:31:58;;;;;;;4.75;1.73;;;20.70;98.50;;;;;;5042562;28;20060;-65
2023/10/10 01:34:31;;;;;;;;;;;20.70;98.30;;;;;;5043752;28;20081;-65
2023/10/10 01:37:00;;;;;;;4.60;1.45;;;20.70;99.10;;;;;;5034273;28;20259;-65
2023/10/10 01:39:51;;;;;;;3.72;1.95;;;20.70;99.40;;;;;;5050752;28;20041;-65
2023/10/10 01:42:18;;;;;;;5.18;1.95;;;20.60;99.00;;;;;;5048994;28;20129;-65
2023/10/10 01:44:43;;;;;;;5.50;2.30;;;20.50;99.00;;;;;;5034849;28;20049;-65
2023/10/10 01:47:34;;;;;;;5.22;2.20;;;20.60;98.10;;;;;;5035242;28;20052;-66
2023/10/10 01:50:01;;;;;;;4.55;1.90;;;20.60;99.00;;;;;;5033892;28;20049;-65
2023/10/10 01:52:27;;;;;;;5.00;1.77;;;20.60;99.10;;;;;;5040957;28;20049;-65
2023/10/10 01:54:53;;;;;;;3.30;1.80;;;20.70;99.20;;;;;;5034384;28;20136;-65
2023/10/10 01:57:24;;;;;;;5.95;1.83;;;20.60;99.00;;;;;;5033565;28;20116;-65
2023/10/10 01:59:51;;;;;;;5.18;1.98;;;20.70;99.10;;;;;;5042044;28;20494;-64
2023/10/10 02:02:21;;;;;;;4.90;1.90;;;20.50;99.10;;;;;;5050044;28;20057;-65
2023/10/10 02:04:47;;;;;;;3.28;1.70;;;20.60;99.10;;;;;;5048642;28;20080;-65
2023/10/10 02:07:16;;;;;;;6.80;2.40;;;20.60;99.00;;;;;;5054205;28;20053;-64
2023/10/10 02:09:43;;;;;;;4.60;2.10;;;20.60;99.40;;;;;;5038966;28;20049;-65
2023/10/10 02:12:15;;;;;;;4.10;1.80;;;20.60;99.00;;;;;;5049321;28;20425;-65
2023/10/10 02:14:43;;;;;;;4.22;1.92;;;20.70;99.20;;;;;;5034440;28;20085;-65
2023/10/10 02:17:26;;;;;;;4.05;1.90;;;20.70;97.90;;;;;;5049837;28;20064;-65
2023/10/10 02:20:19;;;;;;;3.97;1.55;;;20.60;97.50;;;;;;5034298;28;20063;-64
2023/10/10 02:22:51;;;;;;;4.20;1.98;;;20.60;99.30;;;;;;5051125;28;20052;-65
2023/10/10 02:27:55;;;;;;;3.75;1.92;;;20.60;99.00;;;;;;5033179;28;20048;-64
2023/10/10 02:33:30;;;;;;;3.63;2.00;;;20.60;99.00;;;;;;5036671;28;20110;-64
2023/10/10 02:35:54;;;;;;;4.88;2.15;;;20.50;99.00;;;;;;5052489;28;20053;-64
2023/10/10 02:38:39;;;;;;;4.05;2.00;;;20.70;99.10;;;;;;5052778;28;20063;-64
2023/10/10 02:41:38;;;;;;;5.18;2.35;;;20.40;97.60;;;;;;5053874;28;20063;-64
2023/10/10 02:44:05;;;;;;;4.75;2.22;;;20.30;99.00;;;;;;5040589;28;22355;-64
2023/10/10 02:46:36;;;;;;;4.35;1.83;;;20.50;98.00;;;;;;5021112;28;20045;-64
2023/10/10 02:51:51;;;;;;;3.65;1.75;;;20.60;99.00;;;;;;5046641;28;20064;-65
2023/10/10 02:57:39;;;;;;;5.55;2.17;;;20.60;99.00;;;;;;5047839;28;20053;-65
2023/10/10 02:59:38;;;;;;;6.05;2.08;;;20.50;98.10;;;;;;5033184;28;20088;-64
2023/10/10 03:02:50;;;;;;;5.13;2.30;;;20.60;99.00;;;;;;5032035;28;20049;-65
2023/10/10 03:07:29;;;;;;;6.30;2.40;;;;;;;;;;5047415;28;20045;-65
2023/10/10 03:12:37;;;;;;;4.70;2.20;;;20.50;99.00;;;;;;5033538;28;20410;-64
2023/10/10 03:28:20;;;;;;;6.20;2.20;;;20.60;98.90;;;;;;5040523;28;20057;-65
2023/10/10 03:30:55;;;;;;;4.20;2.42;;;20.40;99.30;;;;;;5052877;28;20483;-65
2023/10/10 03:36:14;;;;;;;4.43;2.00;;;;;;;;;;5043183;28;20040;-65
2023/10/10 05:25:31;;;;;;;5.57;2.00;;;20.60;97.70;;;;;;5035723;28;20045;-65
2023/10/10 05:27:58;;;;;;;5.57;2.10;;;20.60;99.00;;;;;;5048882;28;20053;-65
2023/10/10 05:30:45;;;;;;;4.80;1.95;;;20.50;98.00;;;;;;5064217;28;20053;-65
2023/10/10 05:33:10;;;;;;;4.70;2.25;;;20.50;99.10;;;;;;5044335;28;20049;-65
2023/10/10 05:35:37;;;;;;;5.13;2.08;;;20.60;99.00;;;;;;5038953;28;20095;-65
2023/10/10 05:38:09;;;;;;;5.93;2.30;;;20.60;99.00;;;;;;5043972;28;20187;-65
2023/10/10 05:40:38;;;;;;;3.85;1.95;;;20.50;98.90;;;;;;5050370;28;20132;-65
2023/10/10 05:43:09;;;;;;;4.65;2.15;;;;;;;;;;5034860;28;20049;-65
2023/10/10 05:45:36;;;;;;;4.95;1.90;;;20.50;97.30;;;;;;5055249;28;20037;-65
2023/10/10 05:48:01;;;;;;;4.55;2.38;;;20.50;99.00;;;;;;5052805;28;20394;-65
2023/10/10 05:50:28;;;;;;;5.05;2.15;;;20.50;98.90;;;;;;5039453;28;20053;-65
2023/10/10 05:52:54;;;;;;;4.30;2.15;;;;;;;;;;5050485;28;20057;-65
2023/10/10 05:55:23;;;;;;;4.00;2.00;;;20.50;99.00;;;;;;5050429;28;20068;-65
2023/10/10 05:57:49;;;;;;;4.45;2.35;;;20.50;98.10;;;;;;5049085;28;20072;-65
2023/10/10 06:00:15;;;;;;;3.92;2.20;;;20.50;99.00;;;;;;5037497;28;20094;-65
2023/10/10 06:02:50;;;;;;;5.35;2.05;;;20.50;99.00;;;;;;5052773;28;20398;-65
2023/10/10 06:05:16;;;;;;;5.78;2.10;;;20.50;99.00;;;;;;5054375;28;20395;-65
2023/10/10 06:07:43;;;;;;;4.88;2.28;;;20.40;98.90;;;;;;5039174;28;20050;-65
2023/10/10 06:10:17;;;;;;;4.40;2.13;;;20.60;99.10;;;;;;5004834;28;20045;-65
2023/10/10 06:12:47;;;;;;;5.10;2.20;;;20.40;99.00;;;;;;5043090;28;20042;-65
2023/10/10 06:15:19;;;;;;;5.03;2.28;;;20.40;98.90;;;;;;5032582;28;20053;-65
2023/10/10 06:18:08;;;;;;;5.60;2.27;;;20.60;99.00;;;;;;5012836;28;20398;-64
2023/10/10 06:20:43;;;;;;;5.18;2.70;;;20.50;97.70;;;;;;5036447;28;20056;-65
2023/10/10 06:23:11;;;;;;;4.63;2.35;;;20.80;97.60;;;;;;5018845;28;20573;-66
2023/10/10 06:25:37;;;;;;;5.18;2.50;;;20.30;98.90;;;;;;5052868;28;20486;-65
2023/10/10 06:28:06;;;;;;;3.92;2.20;;;20.50;98.00;;;;;;5050702;28;20048;-65
2023/10/10 06:30:39;;;;;;;5.72;2.40;;;20.40;98.90;;;;;;5054061;28;20055;-65
2023/10/10 06:33:15;;;;;;;5.03;2.33;;;;;;;;;;5053295;28;20061;-65
2023/10/10 06:35:52;;;;;;;6.38;3.22;;;20.60;97.20;;;;;;5045892;28;20045;-65
2023/10/10 06:38:23;;;;;;;4.82;2.47;;;20.60;99.00;;;;;;5035322;28;20053;-65
2023/10/10 06:40:53;;;;;;;6.28;2.83;;;20.50;99.30;;;;;;5029416;28;20103;-65
2023/10/10 06:43:20;;;;;;;5.20;2.80;;;20.50;99.20;;;;;;5032744;28;20057;-65
2023/10/10 06:45:54;;;;;;;4.75;2.70;;;;;;;;;;5066456;28;20076;-65
2023/10/10 06:48:32;;;;;;;8.23;3.20;;;20.50;97.40;;;;;;5051935;28;20148;-65
2023/10/10 06:51:00;;;;;;;6.40;3.10;;;;;;;;;;5049157;28;20031;-65
2023/10/10 06:53:34;;;;;;;6.45;3.30;;;20.70;97.20;;;;;;5035003;28;20120;-65
2023/10/10 06:56:17;;;;;;;6.28;3.22;;;20.60;99.00;;;;;;5023857;28;20056;-65
2023/10/10 06:58:47;;;;;;;5.07;2.75;;;20.60;98.10;;;;;;5047843;28;20107;-65
2023/10/10 07:01:15;;;;;;;6.07;3.08;;;20.70;99.00;;;;;;5019126;28;20057;-66
2023/10/10 07:03:46;;;;;;;6.32;3.58;;;20.60;98.90;;;;;;5035806;28;20053;-65
2023/10/10 07:06:12;;;;;;;6.45;3.53;;;20.40;98.90;;;;;;5038195;28;20128;-65
2023/10/10 07:08:38;;;;;;;6.22;3.30;;;20.50;98.90;;;;;;5035158;28;20050;-65
2023/10/10 07:11:05;;;;;;;4.97;3.10;;;20.70;97.90;;;;;;5042099;28;20049;-66
2023/10/10 07:13:31;;;;;;;5.50;3.33;;;20.30;99.00;;;;;;5033334;28;20053;-66
2023/10/10 07:15:58;;;;;;;6.65;3.22;;;20.50;98.70;;;;;;5040053;28;20044;-65
2023/10/10 07:18:24;;;;;;;5.85;3.67;;;;;;;;;;5042990;28;20041;-66
2023/10/10 07:21:08;;;;;;;6.20;3.55;;;20.80;99.00;;;;;;5053590;28;20049;-65
2023/10/10 07:23:38;;;;;;;5.50;3.63;;;20.60;97.40;;;;;;5035844;28;20102;-65
2023/10/10 07:26:18;;;;;;;6.00;3.80;;;20.70;97.80;;;;;;5041372;28;20116;-64
2023/10/10 07:28:52;;;;;;;5.43;3.55;;;20.60;98.60;;;;;;5034809;28;20044;-65
2023/10/10 07:31:20;;;;;;;6.30;3.60;;;20.80;98.60;;;;;;5050226;28;20037;-65
2023/10/10 07:33:55;;;;;;;5.82;3.70;;;21.00;98.90;;;;;;5052059;28;20072;-65
2023/10/10 07:36:25;;;;;;;6.40;3.85;;;21.00;98.50;;;;;;5050375;28;20099;-65
2023/10/10 07:38:54;;;;;;;7.80;4.22;;;20.80;98.30;;;;;;5051345;28;20075;-65
2023/10/10 07:41:30;;;;;;;8.02;4.00;;;21.00;97.50;;;;;;5050143;28;20120;-65
2023/10/10 07:43:59;;;;;;;6.50;4.22;;;21.10;98.40;;;;;;5045921;28;20389;-66
2023/10/10 07:46:28;;;;;;;6.25;3.88;;;21.00;96.90;;;;;;5051828;28;20041;-65
2023/10/10 07:48:54;;;;;;;7.95;4.10;;;21.30;98.20;;;;;;5059035;28;20402;-64
2023/10/10 07:51:28;;;;;;;5.97;4.13;;;21.20;97.20;;;;;;5032889;28;20038;-64
2023/10/10 07:56:46;;;;;;;8.55;4.90;;;21.30;98.00;;;;;;5055553;28;20098;-65
2023/10/10 07:59:17;;;;;;;7.93;4.93;;;21.60;97.10;;;;;;5041832;28;20186;-65
2023/10/10 08:01:44;;;;;;;8.38;4.78;;;21.40;98.30;;;;;;5049288;28;20045;-64
2023/10/10 08:04:14;;;;;;;7.55;4.72;;;21.40;97.00;;;;;;5050971;28;20056;-65
2023/10/10 08:06:44;;;;;;;8.35;5.07;;;21.40;98.00;;;;;;5051161;28;20052;-65
2023/10/10 08:11:46;;;;;;;7.93;4.70;;;21.30;97.10;;;;;;5051027;28;20057;-66
2023/10/10 08:14:11;;;;;;;7.13;4.40;;;21.40;98.30;;;;;;5052497;28;20076;-65
2023/10/10 08:16:39;;;;;;;9.40;5.10;;;21.40;98.00;;;;;;5052540;28;20528;-66
2023/10/10 08:19:06;;;;;;;10.07;4.88;;;21.30;97.20;;;;;;5025002;28;20049;-65
2023/10/10 08:21:39;;;;;;;10.30;5.22;;;21.50;97.10;;;;;;5042838;28;20128;-66
2023/10/10 08:24:08;;;;;;;7.15;5.10;;;21.20;97.00;;;;;;5017654;28;20136;-66
2023/10/10 08:26:40;;;;;;;7.57;5.18;;;21.40;97.10;;;;;;5014826;28;20069;-65
2023/10/10 08:29:10;;;;;;;7.63;5.18;;;21.30;97.00;;;;;;5038295;28;20060;-66
2023/10/10 08:31:37;;;;;;;8.52;5.13;;;21.60;97.80;;;;;;5034319;28;20041;-66
2023/10/10 08:34:04;;;;;;;9.07;5.50;;;21.40;96.70;;;;;;5051152;28;20052;-64
2023/10/10 08:36:30;;;;;;;7.82;5.28;;;21.60;98.20;;;;;;5048062;28;20076;-66
2023/10/10 08:38:57;;;;;;;8.07;5.15;;;21.60;96.70;;;;;;5035500;28;20084;-66
2023/10/10 08:41:26;;;;;;;8.50;5.55;;;21.80;96.90;;;;;;5046437;28;20045;-65
2023/10/10 08:43:53;;;;;;;9.15;5.93;;;21.50;96.70;;;;;;5030114;28;20041;-65
2023/10/10 08:46:21;;;;;;;8.77;5.90;;;21.80;96.90;;;;;;5056847;28;20042;-64
2023/10/10 08:48:48;;;;;;;11.38;6.32;;;21.40;97.60;;;;;;5052447;28;20565;-65
2023/10/10 08:51:13;;;;;;;9.95;6.50;;;21.70;96.70;;;;;;5029363;28;20132;-65
2023/10/10 08:53:39;;;;;;;10.30;6.53;;;20.00;97.50;;;;;;5051683;28;20129;-65
2023/10/10 08:56:06;;;;;;;9.48;6.90;;;21.60;96.60;;;;;;5048885;28;20450;-64
2023/10/10 08:58:32;;;;;;;12.65;7.70;;;21.80;96.80;;;;;;5055874;28;20486;-65
2023/10/10 09:01:00;;;;;;;10.57;7.97;;;21.70;96.60;;;;;;5039101;28;20052;-65
2023/10/10 09:03:26;;;;;;;10.63;8.27;;;21.70;96.80;;;;;;5035777;28;20569;-66
2023/10/10 09:05:52;;;;;;;13.80;8.95;;;21.70;96.70;;;;;;5036047;28;20057;-65
2023/10/10 09:08:26;;;;;;;12.65;8.90;;;21.30;96.60;;;;;;5034627;28;20061;-65
2023/10/10 09:10:55;;;;;;;14.70;10.60;;;21.60;97.80;;;;;;5018749;28;20046;-65
2023/10/10 09:13:21;;;;;;;13.00;9.60;;;21.80;97.70;;;;;;5050154;28;20084;-66
2023/10/10 09:15:54;;;;;;;37.05;12.43;;;21.70;96.60;;;;;;5041030;28;20482;-66
2023/10/10 09:18:23;;;;;;;42.05;13.88;;;21.50;96.90;;;;;;5064379;28;20084;-67
2023/10/10 09:20:55;;;;;;;38.85;14.98;;;21.60;96.40;;;;;;5061424;28;20190;-67
2023/10/10 09:23:28;;;;;;;38.60;14.48;;;21.60;96.90;;;;;;5054697;28;20071;-66
2023/10/10 09:26:18;;;;;;;;;;;21.60;97.10;;;;;;5055804;28;20052;-66
2023/10/10 09:28:55;;;;;;;28.05;14.20;;;21.90;97.10;;;;;;5039071;28;19921;-70
2023/10/10 09:31:26;;;;;;;28.98;15.98;;;21.80;98.30;;;;;;5042203;28;20048;-68
2023/10/10 09:33:54;;;;;;;28.05;16.90;;;21.80;97.10;;;;;;5035252;28;20499;-67
2023/10/10 09:36:20;;;;;;;25.52;16.40;;;21.60;97.10;;;;;;5034644;28;20046;-69
2023/10/10 09:38:47;;;;;;;34.17;17.02;;;21.50;97.10;;;;;;5035079;28;20033;-71
2023/10/10 09:41:14;;;;;;;33.35;18.77;;;21.70;97.10;;;;;;5059322;28;20065;-67
2023/10/10 09:57:40;;;;;;;30.73;22.27;;;21.60;98.90;;;;;;5044396;28;20056;-68
2023/10/10 10:00:16;;;;;;;29.23;21.52;;;21.50;97.60;;;;;;5039454;28;20056;-68
2023/10/10 10:02:56;;;;;;;30.40;22.05;;;21.50;97.60;;;;;;5035947;28;20084;-67
2023/10/10 10:05:28;;;;;;;29.20;21.05;;;21.70;97.40;;;;;;5033904;28;20060;-68
2023/10/10 10:08:13;;;;;;;28.40;21.80;;;21.70;97.70;;;;;;5032031;28;20053;-68
2023/10/10 10:10:49;;;;;;;29.00;21.95;;;21.60;99.10;;;;;;5017021;28;20053;-68
2023/10/10 10:13:51;;;;;;;30.10;22.60;;;21.60;97.10;;;;;;5034464;28;20191;-67
2023/10/10 10:16:34;;;;;;;33.30;23.33;;;21.70;97.30;;;;;;5036153;28;20420;-65
2023/10/10 10:19:15;;;;;;;32.60;22.50;;;21.80;97.20;;;;;;5056021;28;20514;-65
2023/10/10 10:21:56;;;;;;;28.63;22.13;;;21.70;97.40;;;;;;5036041;28;20045;-66
2023/10/10 10:24:30;;;;;;;28.35;22.48;;;21.60;98.60;;;;;;5033273;28;20064;-65
2023/10/10 10:27:24;;;;;;;32.75;22.67;;;21.60;97.70;;;;;;5042523;28;20394;-66
2023/10/10 10:29:54;;;;;;;31.77;23.60;;;21.60;97.70;;;;;;5045504;28;20085;-65
2023/10/10 10:32:24;;;;;;;33.70;24.75;;;21.70;97.50;;;;;;5049474;28;20087;-65
2023/10/10 10:34:55;;;;;;;33.67;24.88;;;21.70;97.40;;;;;;5025374;28;20059;-66
2023/10/10 10:37:23;;;;;;;38.80;25.42;;;22.00;97.50;;;;;;5032498;28;20037;-67
2023/10/10 10:40:23;;;;;;;34.03;26.05;;;22.20;97.30;;;;;;5049134;28;20052;-70
2023/10/10 10:42:53;;;;;;;32.13;26.50;;;22.10;98.90;;;;;;5038006;28;20052;-68
2023/10/10 10:45:41;;;;;;;37.13;26.25;;;22.00;97.10;;;;;;5051243;28;20048;-71
2023/10/10 10:48:33;;;;;;;35.47;26.00;;;22.30;97.40;;;;;;5052049;28;20124;-69
2023/10/10 10:51:25;;;;;;;34.97;26.70;;;22.60;96.90;;;;;;5038666;28;20056;-69
2023/10/10 10:53:58;;;;;;;37.53;27.15;;;22.30;97.00;;;;;;5044076;28;20583;-68
2023/10/10 10:59:12;;;;;;;38.55;27.63;;;22.30;97.20;;;;;;5048014;28;20085;-65
2023/10/10 11:02:15;;;;;;;36.20;27.63;;;22.60;97.40;;;;;;5005150;28;20053;-68
2023/10/10 11:04:48;;;;;;;34.85;27.73;;;22.50;98.50;;;;;;5014152;28;20127;-69
2023/10/10 11:07:26;;;;;;;36.10;26.92;;;22.40;97.10;;;;;;5028028;28;20438;-67
2023/10/10 11:10:06;;;;;;;34.60;27.17;;;22.40;96.60;;;;;;5030851;28;20072;-68
2023/10/10 11:12:36;;;;;;;33.45;26.48;;;22.50;97.00;;;;;;5015351;28;20582;-66
2023/10/10 11:15:14;;;;;;;40.67;27.73;;;22.50;96.90;;;;;;5015628;28;20167;-65
2023/10/10 11:17:42;;;;;;;33.65;26.30;;;22.60;96.80;;;;;;5028620;28;20099;-65
2023/10/10 11:20:26;;;;;;;34.30;25.73;;;22.60;97.00;;;;;;5014203;28;20049;-65
2023/10/10 11:22:54;;;;;;;32.58;26.38;;;22.50;96.30;;;;;;5014204;28;20049;-65
2023/10/10 11:25:41;;;;;;;35.40;25.90;;;22.70;96.60;;;;;;5009035;28;20520;-69
2023/10/10 11:28:23;;;;;;;31.13;23.67;;;22.80;98.00;;;;;;5018105;28;20057;-65
2023/10/10 11:30:50;;;;;;;34.55;24.90;;;22.60;95.90;;;;;;4993078;28;20056;-69
2023/10/10 11:33:48;;;;;;;35.58;25.02;;;22.80;97.60;;;;;;5024040;28;20779;-65
2023/10/10 11:36:29;;;;;;;37.38;25.27;;;22.70;96.50;;;;;;5013959;28;20045;-68
2023/10/10 11:39:10;;;;;;;34.78;24.13;;;22.90;96.30;;;;;;5013447;28;20038;-69
2023/10/10 11:41:37;;;;;;;30.35;24.23;;;22.80;96.30;;;;;;5041931;28;20053;-69
2023/10/10 11:44:03;;;;;;;32.53;23.45;;;22.70;96.20;;;;;;5044165;28;20057;-68
2023/10/10 11:46:30;;;;;;;39.17;25.30;;;;;;;;;;5024161;28;20618;-67
2023/10/10 11:49:04;;;;;;;36.08;22.85;;;22.80;95.40;;;;;;5048800;28;20079;-70
2023/10/10 11:51:35;;;;;;;32.33;21.70;;;22.70;96.20;;;;;;5067772;28;20128;-69
2023/10/10 11:54:01;;;;;;;32.17;22.17;;;22.50;96.40;;;;;;5050834;28;20044;-68
2023/10/10 11:56:28;;;;;;;30.70;22.02;;;22.60;96.20;;;;;;5051402;28;20513;-69
2023/10/10 11:58:57;;;;;;;31.92;21.55;;;22.60;96.20;;;;;;5050853;28;20041;-68
2023/10/10 12:07:05;;;;;;;27.38;20.52;;;22.70;95.60;;;;;;5039041;28;20049;-65
2023/10/10 12:09:45;;;;;;;29.27;21.10;;;23.00;96.10;;;;;;5047323;28;20045;-65
2023/10/10 12:12:20;;;;;;;28.17;21.17;;;22.90;96.00;;;;;;5052361;28;20053;-65
2023/10/10 12:14:46;;;;;;;28.67;21.35;;;22.80;95.90;;;;;;5045245;28;20041;-68
2023/10/10 12:17:14;;;;;;;35.22;21.25;;;22.80;95.80;;;;;;5038990;28;20105;-65
2023/10/10 12:19:43;;;;;;;27.80;20.70;;;23.10;95.50;;;;;;5038472;28;20061;-65
2023/10/10 12:22:17;;;;;;;29.58;19.95;;;23.20;95.40;;;;;;5043434;28;20128;-68
2023/10/10 12:24:43;;;;;;;23.95;19.00;;;23.10;95.20;;;;;;5046907;28;20045;-68
2023/10/10 12:27:09;;;;;;;26.67;18.60;;;23.40;95.20;;;;;;5031256;28;20053;-67
2023/10/10 12:29:41;;;;;;;24.33;18.75;;;23.30;95.30;;;;;;5031024;28;20049;-68
2023/10/10 12:32:22;;;;;;;24.85;19.15;;;23.20;95.00;;;;;;5031198;28;20037;-68
2023/10/10 12:34:48;;;;;;;24.17;18.15;;;23.20;95.00;;;;;;5016177;28;20410;-68
2023/10/10 12:37:17;;;;;;;26.40;17.73;;;23.00;95.10;;;;;;5020514;28;20046;-68
2023/10/10 12:39:43;;;;;;;25.05;17.95;;;23.20;94.80;;;;;;5023347;28;20045;-65
2023/10/10 12:42:09;;;;;;;21.48;17.08;;;23.00;95.10;;;;;;5029938;28;20093;-65
2023/10/10 12:44:35;;;;;;;23.58;17.20;;;22.80;95.10;;;;;;5031404;28;20045;-65
2023/10/10 12:47:06;;;;;;;23.98;17.27;;;22.90;95.10;;;;;;5039548;28;20058;-65
2023/10/10 12:49:44;;;;;;;23.95;16.73;;;22.80;95.10;;;;;;5055145;28;20116;-65
2023/10/10 12:52:16;;;;;;;25.73;17.02;;;23.00;94.70;;;;;;5048411;28;20051;-65
2023/10/10 12:54:46;;;;;;;25.95;17.48;;;22.80;94.60;;;;;;5042220;28;20044;-65
2023/10/10 12:57:14;;;;;;;24.02;17.15;;;22.70;95.10;;;;;;5043600;28;20124;-65
2023/10/10 12:59:46;;;;;;;23.50;17.52;;;22.80;94.70;;;;;;5057607;28;20124;-65
2023/10/10 13:02:15;;;;;;;22.38;16.42;;;22.60;95.00;;;;;;5033418;28;20103;-65
2023/10/10 13:04:45;;;;;;;27.35;17.80;;;23.10;95.20;;;;;;5048822;28;20055;-69
2023/10/10 13:07:12;;;;;;;28.23;17.35;;;23.20;95.10;;;;;;5050021;28;20057;-68
2023/10/10 13:09:42;;;;;;;28.15;16.58;;;22.60;94.90;;;;;;5046982;28;20033;-66
2023/10/10 13:12:09;;;;;;;29.27;17.10;;;23.00;95.00;;;;;;5041322;28;20541;-65
2023/10/10 13:14:36;;;;;;;27.60;18.52;;;22.80;94.80;;;;;;5030150;28;20045;-65
2023/10/10 13:19:46;;;;;;;23.73;16.25;;;22.90;94.60;;;;;;5031304;28;20049;-65
2023/10/10 13:22:20;;;;;;;23.15;16.15;;;23.10;94.90;;;;;;5040487;28;20122;-65
2023/10/10 13:24:47;;;;;;;21.30;15.70;;;22.80;95.00;;;;;;5050378;28;20063;-65
2023/10/10 13:27:13;;;;;;;26.52;15.70;;;23.10;95.10;;;;;;5024071;28;20053;-65
2023/10/10 13:29:39;;;;;;;23.17;16.20;;;22.70;96.20;;;;;;5034766;28;20076;-65
2023/10/10 13:32:06;;;;;;;26.33;16.15;;;23.10;95.10;;;;;;5050729;28;20040;-65
2023/10/10 13:34:32;;;;;;;23.45;15.32;;;22.60;95.10;;;;;;5051903;28;20540;-65
2023/10/10 13:36:58;;;;;;;22.73;15.70;;;22.90;95.10;;;;;;5049880;28;20048;-68
2023/10/10 13:39:40;;;;;;;20.63;13.75;;;22.50;95.20;;;;;;5052466;28;20079;-65
2023/10/10 13:42:06;;;;;;;20.65;15.40;;;22.60;96.30;;;;;;5048790;28;20048;-66
2023/10/10 13:44:33;;;;;;;24.95;15.52;;;22.90;95.20;;;;;;5054359;28;20099;-66
2023/10/10 13:47:00;;;;;;;22.98;16.38;;;22.70;95.10;;;;;;5050238;28;20049;-65
2023/10/10 13:49:25;;;;;;;22.73;16.17;;;22.80;95.10;;;;;;5050926;28;20438;-68
2023/10/10 13:51:54;;;;;;;22.48;15.85;;;22.80;95.10;;;;;;5047383;28;20073;-64
2023/10/10 13:54:20;;;;;;;25.92;16.55;;;22.70;95.30;;;;;;5049975;28;20049;-65
2023/10/10 13:56:46;;;;;;;28.50;18.73;;;23.00;95.30;;;;;;5049278;28;20055;-65
2023/10/10 13:59:12;;;;;;;27.33;18.15;;;22.80;96.80;;;;;;5053503;28;20048;-65
2023/10/10 14:01:39;;;;;;;29.25;18.63;;;22.60;95.20;;;;;;5042488;28;20052;-66
2023/10/10 14:07:05;;;;;;;26.98;19.00;;;22.40;94.90;;;;;;5054958;28;20461;-65
2023/10/10 14:09:32;;;;;;;27.02;18.98;;;22.60;95.50;;;;;;5072352;28;20067;-65
2023/10/10 14:12:00;;;;;;;25.67;18.95;;;22.40;95.50;;;;;;5054391;28;20505;-65
2023/10/10 14:14:27;;;;;;;26.65;18.83;;;22.70;95.60;;;;;;5029771;28;20444;-66
2023/10/10 14:16:52;;;;;;;32.00;19.67;;;22.30;95.50;;;;;;5035652;28;20081;-67
2023/10/10 14:19:23;;;;;;;28.27;19.33;;;22.60;95.90;;;;;;5005560;28;20528;-65
2023/10/10 14:21:52;;;;;;;24.42;17.98;;;22.40;95.70;;;;;;5033115;28;20139;-65
2023/10/10 14:24:18;;;;;;;26.10;17.63;;;22.30;95.90;;;;;;5039101;28;20425;-65
2023/10/10 14:26:44;;;;;;;25.05;17.67;;;22.50;95.90;;;;;;5055429;28;20370;-65
2023/10/10 14:29:13;;;;;;;24.73;17.15;;;22.50;95.80;;;;;;5071320;28;20082;-65
2023/10/10 14:31:45;;;;;;;21.02;16.45;;;22.30;95.90;;;;;;5070089;28;20378;-65
2023/10/10 14:34:20;;;;;;;26.35;16.13;;;22.40;95.70;;;;;;5040225;28;20048;-65
2023/10/10 14:36:50;;;;;;;22.58;15.88;;;22.40;96.00;;;;;;5048975;28;20061;-65
2023/10/10 14:39:28;;;;;;;19.90;14.52;;;22.30;95.80;;;;;;5048357;28;20127;-65
2023/10/10 14:42:01;;;;;;;23.65;15.30;;;22.40;95.50;;;;;;5061344;28;20107;-66
2023/10/10 14:44:28;;;;;;;25.58;14.48;;;22.30;96.00;;;;;;5032935;28;20111;-65
2023/10/10 14:47:02;;;;;;;23.77;14.23;;;22.20;95.90;;;;;;5050697;28;20426;-67
2023/10/10 14:49:31;;;;;;;22.27;14.02;;;22.40;96.00;;;;;;5048396;28;20104;-67
2023/10/10 14:52:03;;;;;;;21.10;13.40;;;22.50;95.60;;;;;;5035396;28;20080;-67
2023/10/10 14:54:37;;;;;;;24.63;13.73;;;22.40;95.80;;;;;;5040951;28;20377;-66
2023/10/10 14:57:04;;;;;;;20.63;13.63;;;22.50;96.00;;;;;;5032907;28;20104;-68
2023/10/10 14:59:34;;;;;;;23.80;13.32;;;21.90;95.90;;;;;;5016192;28;20084;-66
2023/10/10 15:02:00;;;;;;;20.35;12.90;;;22.20;97.20;;;;;;5041460;28;21881;-66
2023/10/10 15:04:28;;;;;;;27.70;15.75;;;22.30;95.80;;;;;;5044422;28;20410;-66
2023/10/10 15:06:54;;;;;;;18.80;11.85;;;22.60;95.80;;;;;;5033527;28;20120;-66
2023/10/10 15:09:23;;;;;;;23.45;11.35;;;22.00;95.70;;;;;;5033505;28;20045;-68
2023/10/10 15:11:50;;;;;;;21.38;12.73;;;22.30;96.00;;;;;;5046212;28;20106;-66
2023/10/10 15:14:19;;;;;;;17.35;11.40;;;22.20;95.90;;;;;;5050759;28;20049;-67
2023/10/10 15:16:47;;;;;;;18.88;11.57;;;22.40;95.90;;;;;;5021521;28;20042;-67
2023/10/10 15:19:13;;;;;;;21.13;11.55;;;22.10;95.90;;;;;;5015797;28;20057;-65
2023/10/10 15:21:39;;;;;;;18.70;11.05;;;22.10;95.80;;;;;;5037635;28;20046;-65
2023/10/10 15:24:11;;;;;;;16.40;10.75;;;22.20;95.90;;;;;;5018782;28;20533;-65
2023/10/10 15:26:38;;;;;;;17.33;10.80;;;22.10;95.80;;;;;;5036088;28;20052;-65
2023/10/10 15:29:04;;;;;;;17.63;10.65;;;22.30;95.90;;;;;;5037092;28;20088;-67
2023/10/10 15:31:31;;;;;;;21.25;10.75;;;22.10;96.00;;;;;;5026118;28;20053;-67
2023/10/10 15:33:57;;;;;;;18.65;11.20;;;22.10;95.90;;;;;;5051644;28;20088;-66
2023/10/10 15:36:30;;;;;;;15.82;10.93;;;22.20;95.90;;;;;;5068375;28;20130;-67
2023/10/10 15:39:06;;;;;;;18.02;10.60;;;22.00;95.80;;;;;;5039855;28;20135;-66
2023/10/10 15:41:36;;;;;;;18.42;10.95;;;22.10;96.00;;;;;;5022792;28;20472;-67
2023/10/10 15:44:06;;;;;;;27.00;11.73;;;22.10;95.90;;;;;;5047578;28;20064;-67
2023/10/10 15:46:34;;;;;;;21.42;12.00;;;22.20;95.80;;;;;;5033364;28;20056;-65
2023/10/10 15:49:00;;;;;;;19.10;10.88;;;22.00;95.90;;;;;;5041564;28;20056;-65
2023/10/10 15:51:30;;;;;;;20.10;11.13;;;22.40;96.00;;;;;;5031345;28;20049;-66
2023/10/10 15:53:56;;;;;;;20.48;10.30;;;22.30;96.00;;;;;;5056279;28;20394;-65